Weather reports worldwide

Advertisment
Great Dun Fell, United Kingdom (3227): temperature & dewpoint: 21.06.2017 06:00:00 - 27.06.2017 06:00:00 (BST)Great Dun Fell, United Kingdom (3227): temperature 5cm: 21.06.2017 06:00:00 - 27.06.2017 06:00:00 (BST)Great Dun Fell, United Kingdom (3227): wind speed & gusts: 21.06.2017 06:00:00 - 27.06.2017 06:00:00 (BST)Great Dun Fell, United Kingdom (3227): wind direction: 21.06.2017 06:00:00 - 27.06.2017 06:00:00 (BST)Great Dun Fell, United Kingdom (3227): visibility: 21.06.2017 06:00:00 - 27.06.2017 06:00:00 (BST)Great Dun Fell, United Kingdom (3227): precipitation: 21.06.2017 06:00:00 - 27.06.2017 06:00:00 (BST)
Date & Time tt [°C] td [°C] tt 5cm [°C] ff [km/h] ff [kn] fx [km/h] fx [kn] dd vv [km] rr [mm]
27.06.2017 06:00:00 - - - - - - - - - -
27.06.2017 05:00:00 5,7 5,7 - 44 24 59 32 SE - -
27.06.2017 04:00:00 5,2 5,2 - 48 26 55 30 SE - -
27.06.2017 03:00:00 5,3 5,3 - 37 20 46 25 SE - -
27.06.2017 02:00:00 5,3 5,2 - 31 17 - - SE - -
27.06.2017 01:00:00 5,8 5,8 - 22 12 - - ESE - -
27.06.2017 00:00:00 6,2 6,2 - 29 16 - - ESE - -
26.06.2017 23:00:00 6,6 6,5 - 24 13 - - ESE - -
26.06.2017 22:00:00 6,8 6,4 - 18 10 - - ESE - -
26.06.2017 21:00:00 7,6 6,3 - 24 13 - - SE - -
26.06.2017 20:00:00 9,2 4,9 - 16 9 - - S - -
26.06.2017 19:00:00 9,2 3,3 - 15 8 - - SSW - -
26.06.2017 18:00:00 9,3 1,8 - 11 6 - - SSW - -
26.06.2017 17:00:00 9,1 2,2 - 16 9 - - WSW - -
26.06.2017 16:00:00 8,8 1,6 - 18 10 - - WSW - -
26.06.2017 15:00:00 8,5 0,2 - 13 7 - - W - -
26.06.2017 14:00:00 8,3 2,0 - 11 6 - - W - -
26.06.2017 13:00:00 8,3 -0,7 - 13 7 - - WSW - -
26.06.2017 12:00:00 6,9 2,3 - 15 8 - - WNW - -
26.06.2017 11:00:00 5,7 2,2 - 15 8 - - W - -
26.06.2017 10:00:00 5,4 2,4 - 18 10 - - W 0,3 -
26.06.2017 09:00:00 5,0 4,6 - 13 7 - - W - -
26.06.2017 08:00:00 4,8 4,1 - 22 12 - - W - -
26.06.2017 07:00:00 4,6 4,6 - 24 13 - - W - -
26.06.2017 06:00:00 4,2 4,2 - 18 10 - - W - -
26.06.2017 05:00:00 4,4 4,4 - 21 11 - - W - -
26.06.2017 04:00:00 4,4 4,4 - 22 12 - - WNW - -
26.06.2017 03:00:00 4,0 4,0 - 13 7 - - W - -
26.06.2017 02:00:00 3,9 3,9 - 18 10 - - W - -
26.06.2017 01:00:00 4,1 3,9 - 13 7 48 26 NW - -
26.06.2017 00:00:00 4,7 3,7 - 39 21 52 28 WNW - -
25.06.2017 23:00:00 4,9 4,2 - 44 24 57 31 WNW - -
25.06.2017 22:00:00 5,5 4,2 - 44 24 61 33 WNW - -
25.06.2017 21:00:00 6,3 4,2 - 48 26 61 33 WNW - -
25.06.2017 20:00:00 6,5 4,3 - 52 28 74 40 W - -
25.06.2017 19:00:00 6,7 3,6 - 57 31 78 42 W - -
25.06.2017 18:00:00 7,1 3,4 - 59 32 78 42 W - -
25.06.2017 17:00:00 6,6 4,0 - 63 34 72 39 W - -
25.06.2017 16:00:00 6,9 4,2 - 59 32 70 38 W - -
25.06.2017 15:00:00 7,4 3,9 - 57 31 70 38 W - -
25.06.2017 14:00:00 7,0 3,1 - 52 28 68 37 W - -
25.06.2017 13:00:00 7,4 4,2 - 52 28 68 37 W - -
25.06.2017 12:00:00 7,2 2,9 - 57 31 74 40 W - -
25.06.2017 11:00:00 6,5 3,2 - 61 33 80 43 W - -
25.06.2017 10:00:00 5,9 3,6 - 61 33 72 39 W 0,3 -
25.06.2017 09:00:00 5,4 3,8 - 57 31 67 36 W - -
25.06.2017 08:00:00 5,0 5,0 - 41 22 68 37 W - -
25.06.2017 07:00:00 5,0 5,0 - 42 23 54 29 W - -
25.06.2017 06:00:00 4,7 4,7 - 42 23 65 35 W - -
25.06.2017 05:00:00 4,6 4,6 - 55 30 76 41 W - -
25.06.2017 04:00:00 5,2 5,2 - 55 30 74 40 W - -
25.06.2017 03:00:00 5,3 5,3 - 55 30 68 37 W - -
25.06.2017 02:00:00 5,7 5,7 - 59 32 68 37 W - -
25.06.2017 01:00:00 5,7 5,7 - 57 31 70 38 W - -
25.06.2017 00:00:00 5,8 5,7 - 59 32 67 36 W - -
24.06.2017 23:00:00 6,2 6,1 - 57 31 80 43 W - -
24.06.2017 22:00:00 6,7 5,6 - 65 35 76 41 W 0,3 -
24.06.2017 21:00:00 6,9 5,8 - 55 30 68 37 W - -
24.06.2017 20:00:00 7,3 5,6 - 59 32 70 38 W - -
24.06.2017 19:00:00 7,6 5,5 - 65 35 89 48 W - -
24.06.2017 18:00:00 8,0 5,1 - 74 40 89 48 W - -
24.06.2017 17:00:00 7,8 5,9 - 78 42 89 48 W - -
24.06.2017 16:00:00 7,6 6,4 - 67 36 96 52 W - -
24.06.2017 15:00:00 8,8 6,9 - 81 44 - - W - -
24.06.2017 14:00:00 8,5 6,9 - 76 41 89 48 W - -
24.06.2017 13:00:00 8,0 7,0 - 68 37 81 44 W - -
24.06.2017 12:00:00 7,2 7,0 - 65 35 78 42 W - -
24.06.2017 11:00:00 6,9 6,9 - 61 33 81 44 WSW - -
24.06.2017 10:00:00 6,0 6,0 - 59 32 68 37 W - -
24.06.2017 09:00:00 5,8 5,8 - 52 28 65 35 W - -
24.06.2017 08:00:00 5,3 5,3 - 46 25 65 35 WSW - -
24.06.2017 07:00:00 5,2 5,2 - 48 26 72 39 W - -
24.06.2017 06:00:00 5,6 5,6 - 59 32 70 38 W - -
24.06.2017 05:00:00 5,8 5,8 - 42 23 61 33 W - -
24.06.2017 04:00:00 6,0 6,0 - 52 28 70 38 W - -
24.06.2017 03:00:00 6,5 6,5 - 63 34 74 40 W - -
24.06.2017 02:00:00 7,1 7,1 - 48 26 63 34 W - -
24.06.2017 01:00:00 8,1 8,1 - 50 27 61 33 WSW - -
24.06.2017 00:00:00 8,1 8,1 - 48 26 55 30 WSW - -
23.06.2017 23:00:00 8,4 8,4 - 46 25 61 33 W - -
23.06.2017 22:00:00 8,5 8,5 - 48 26 65 35 W - -
23.06.2017 21:00:00 8,8 8,8 - 46 25 63 34 W - -
23.06.2017 20:00:00 9,1 9,1 - 52 28 61 33 W - -
23.06.2017 19:00:00 9,5 9,5 - 46 25 57 31 W - -
23.06.2017 18:00:00 9,9 9,9 - 42 23 72 39 W - -
23.06.2017 17:00:00 10,5 10,5 - 59 32 78 42 WSW - -
23.06.2017 16:00:00 10,4 10,4 - 68 37 85 46 WSW - -
23.06.2017 15:00:00 10,2 10,2 - 72 39 83 45 WSW - -
23.06.2017 14:00:00 10,3 10,3 - 63 34 81 44 WSW - -
23.06.2017 13:00:00 10,0 10,0 - 68 37 81 44 WSW - -
23.06.2017 12:00:00 9,7 9,7 - 65 35 80 43 WSW - -
23.06.2017 11:00:00 9,5 9,5 - 68 37 85 46 WSW - -
23.06.2017 10:00:00 9,3 9,3 - 57 31 72 39 WSW - -
23.06.2017 09:00:00 9,0 9,0 - 55 30 80 43 WSW - -
23.06.2017 08:00:00 8,7 8,7 - 65 35 81 44 WSW - -
23.06.2017 07:00:00 8,7 8,7 - 55 30 70 38 SW - -
23.06.2017 06:00:00 8,3 8,3 - 61 33 68 37 SW - -
23.06.2017 05:00:00 8,1 8,1 - 52 28 68 37 SW - -
23.06.2017 04:00:00 8,1 8,1 - 55 30 68 37 WSW - -
23.06.2017 03:00:00 8,3 8,3 - 65 35 74 40 SW - -
23.06.2017 02:00:00 8,1 8,1 - 63 34 70 38 SW - -
23.06.2017 01:00:00 7,4 7,4 - 61 33 67 36 WSW - -
23.06.2017 00:00:00 7,6 7,6 - 54 29 63 34 SW - -
22.06.2017 23:00:00 7,2 6,6 - 41 22 50 27 WSW - -
22.06.2017 22:00:00 7,4 6,7 - 46 25 63 34 W 0,3 -
22.06.2017 21:00:00 7,6 6,7 - 54 29 59 32 W - -
22.06.2017 20:00:00 8,6 5,9 - 35 19 - - W - -
22.06.2017 19:00:00 10,0 5,4 - 35 19 48 26 W - -
22.06.2017 18:00:00 9,4 6,5 - 35 19 48 26 W - -
22.06.2017 17:00:00 9,3 7,5 - 37 20 50 27 W - -
22.06.2017 16:00:00 9,2 8,8 - 41 22 55 30 W - -
22.06.2017 15:00:00 9,3 9,1 - 42 23 50 27 W - -
22.06.2017 14:00:00 9,5 9,3 - 42 23 52 28 W - -
22.06.2017 13:00:00 9,3 9,0 - 29 16 - - W - -
22.06.2017 12:00:00 9,6 9,5 - 34 18 - - WNW - -
22.06.2017 11:00:00 9,7 9,5 - 29 16 - - WNW - -
22.06.2017 10:00:00 10,4 10,3 - 29 16 50 27 NW - -
22.06.2017 09:00:00 11,8 11,8 - 24 13 - - W - -
22.06.2017 08:00:00 12,0 12,0 - 21 11 - - W - -
22.06.2017 07:00:00 12,4 12,4 - 18 10 - - W - -
22.06.2017 06:00:00 12,4 12,4 - 13 7 - - W - -
22.06.2017 05:00:00 12,2 12,2 - 13 7 - - SW - -
22.06.2017 04:00:00 13,1 13,1 - 28 15 - - SW - -
22.06.2017 03:00:00 13,3 13,3 - 35 19 46 25 SW - -
22.06.2017 02:00:00 13,8 13,8 - 41 22 57 31 SW - -
22.06.2017 01:00:00 14,2 14,1 - 39 21 57 31 SW - -
22.06.2017 00:00:00 15,9 15,8 - 46 25 74 40 SW - -
21.06.2017 23:00:00 16,3 15,8 - 52 28 68 37 SW - -
21.06.2017 22:00:00 17,0 15,4 - 44 24 68 37 SW 0,3 -
21.06.2017 21:00:00 17,6 14,5 - 52 28 63 34 SW - -
21.06.2017 20:00:00 18,0 16,1 - 44 24 55 30 SSW - -
21.06.2017 19:00:00 18,2 15,5 - 37 20 - - SSW - -
21.06.2017 18:00:00 18,5 14,6 - 31 17 - - SSW - -
21.06.2017 17:00:00 18,1 13,0 - 34 18 - - SW - -
21.06.2017 16:00:00 17,4 10,4 - 31 17 - - SSW - -
21.06.2017 15:00:00 16,0 13,6 - 24 13 - - SW - -
21.06.2017 14:00:00 15,7 12,1 - 24 13 - - SW - -
21.06.2017 13:00:00 15,5 13,8 - 26 14 50 27 SSW - -
21.06.2017 12:00:00 14,2 14,0 - 34 18 - - SSW - -
21.06.2017 11:00:00 14,5 12,6 - 18 10 - - S - -
21.06.2017 10:00:00 12,4 12,4 13,7 18 10 - - SSW - 0,7
21.06.2017 09:00:00 11,3 11,0 - 34 18 - - SW - -
21.06.2017 08:00:00 12,3 12,2 - 31 17 - - SSW - -
21.06.2017 07:00:00 12,4 12,4 - 28 15 - - S - -
21.06.2017 06:00:00 13,7 13,7 - 26 14 - - S - -

tt = temperature
td = dewpoint
tt 5cm = temperature 5cm
ff = wind speed
fx = gusts
dd = wind direction
vv = visibility
rr = precipitation

Next stations